Time;durP1;ratioP1;P1;durP2;ratioP2;P2;SDS_P1;SDS_P2;PMS_P1;PMS_P2;Temp;Humidity;BMP_temperature;BMP_pressure;BME280_temperature;BME280_humidity;BME280_pressure;Samples;Min_cycle;Max_cycle;Signal;HPM_P1;HPM_P2
2022/06/24 00:01:58;;;;;;;3.58;0.88;;;21.90;67.70;;;;;;2403432;53;21045;-78
2022/06/24 00:04:26;;;;;;;2.83;0.75;;;21.90;67.80;;;;;;2366449;53;20973;-80
2022/06/24 00:06:54;;;;;;;2.33;0.90;;;21.90;67.80;;;;;;2339453;55;21526;-76
2022/06/24 00:09:20;;;;;;;2.92;0.70;;;21.80;67.80;;;;;;2579601;53;20995;-76
2022/06/24 00:12:01;;;;;;;2.30;0.80;;;21.90;67.90;;;;;;2339338;54;20971;-76
2022/06/24 00:14:27;;;;;;;3.60;0.90;;;21.90;67.90;;;;;;2358113;53;21022;-77
2022/06/24 00:17:00;;;;;;;2.90;0.75;;;21.80;67.80;;;;;;2339226;55;21433;-77
2022/06/24 00:19:30;;;;;;;3.00;0.70;;;21.80;67.90;;;;;;2413023;53;21080;-78
2022/06/24 00:23:18;;;;;;;2.25;0.62;;;21.80;67.90;;;;;;2341275;55;21469;-76
2022/06/24 00:25:46;;;;;;;2.28;0.60;;;21.80;68.00;;;;;;2341847;54;20943;-78
2022/06/24 00:28:13;;;;;;;3.08;0.70;;;21.80;67.90;;;;;;2347157;53;20964;-76
2022/06/24 00:30:41;;;;;;;3.25;0.80;;;21.80;68.00;;;;;;2391873;53;21502;-77
2022/06/24 00:33:15;;;;;;;2.05;0.73;;;21.80;68.10;;;;;;2344237;54;21901;-77
2022/06/24 00:35:50;;;;;;;1.98;0.60;;;21.80;68.20;;;;;;2515462;53;20939;-78
2022/06/24 00:38:33;;;;;;;2.35;0.68;;;21.80;68.20;;;;;;2384048;53;20924;-77
2022/06/24 00:41:11;;;;;;;5.37;0.85;;;21.80;68.30;;;;;;2406988;53;21767;-77
2022/06/24 00:43:41;;;;;;;2.28;0.75;;;21.70;68.20;;;;;;2348056;53;20904;-79
2022/06/24 00:46:26;;;;;;;2.80;1.00;;;21.70;68.20;;;;;;2338516;53;21422;-76
2022/06/24 00:48:57;;;;;;;2.28;0.80;;;21.70;68.30;;;;;;2342243;53;20929;-77
2022/06/24 00:51:33;;;;;;;2.92;0.95;;;21.70;68.40;;;;;;2343562;53;20940;-77
2022/06/24 00:54:09;;;;;;;3.62;0.82;;;21.70;68.60;;;;;;2331930;53;21013;-80
2022/06/24 00:56:36;;;;;;;2.83;0.82;;;21.70;68.70;;;;;;2453596;53;21007;-76
2022/06/24 00:59:07;;;;;;;2.12;0.75;;;21.70;68.70;;;;;;2470945;53;20975;-77
2022/06/24 01:01:38;;;;;;;3.10;0.90;;;21.70;68.80;;;;;;2373126;53;20927;-77
2022/06/24 01:04:07;;;;;;;2.95;1.00;;;21.70;68.80;;;;;;2410754;53;20986;-78
2022/06/24 01:06:34;;;;;;;2.37;0.77;;;21.70;68.90;;;;;;2501005;53;21048;-77
2022/06/24 01:09:00;;;;;;;2.12;0.90;;;21.70;68.90;;;;;;2371459;53;20971;-77
2022/06/24 01:11:34;;;;;;;2.97;0.80;;;21.70;68.90;;;;;;2377895;53;21827;-77
2022/06/24 01:14:00;;;;;;;4.05;0.93;;;21.70;69.00;;;;;;2354319;53;21009;-76
2022/06/24 01:16:27;;;;;;;2.50;0.88;;;21.70;69.00;;;;;;2358525;53;21486;-77
2022/06/24 01:19:01;;;;;;;2.20;0.80;;;21.70;69.00;;;;;;2338690;53;20995;-77
2022/06/24 01:21:40;;;;;;;2.53;0.90;;;21.70;69.00;;;;;;2536987;54;21176;-78
2022/06/24 01:24:27;;;;;;;3.62;1.00;;;21.70;69.80;;;;;;2415165;53;20953;-76
2022/06/24 01:26:55;;;;;;;3.78;0.98;;;21.70;69.00;;;;;;2345896;53;21001;-77
2022/06/24 01:29:22;;;;;;;2.92;0.98;;;21.70;68.90;;;;;;2332106;54;21461;-77
2022/06/24 01:31:49;;;;;;;2.37;1.02;;;21.70;68.90;;;;;;2336323;54;20969;-80
2022/06/24 01:34:16;;;;;;;2.47;1.17;;;21.70;68.90;;;;;;2404461;53;20933;-80
2022/06/24 01:36:42;;;;;;;1.85;0.80;;;21.70;68.80;;;;;;2421936;53;21005;-76
2022/06/24 01:39:08;;;;;;;1.95;0.70;;;21.60;68.60;;;;;;2331548;53;21001;-78
2022/06/24 01:41:36;;;;;;;3.25;0.77;;;21.70;68.70;;;;;;2343771;53;20929;-76
2022/06/24 01:44:02;;;;;;;1.80;0.60;;;21.60;68.50;;;;;;2343808;54;20913;-77
2022/06/24 01:46:30;;;;;;;5.50;0.70;;;21.60;68.60;;;;;;2435322;53;21088;-77
2022/06/24 01:48:56;;;;;;;3.28;0.90;;;21.60;68.60;;;;;;2345806;54;21026;-76
2022/06/24 01:51:23;;;;;;;3.92;0.95;;;21.60;68.50;;;;;;2352601;53;21016;-78
2022/06/24 01:53:49;;;;;;;2.03;0.60;;;21.60;68.60;;;;;;2349609;53;21036;-77
2022/06/24 01:56:17;;;;;;;4.80;0.90;;;21.60;68.70;;;;;;2342697;53;20937;-77
2022/06/24 01:58:44;;;;;;;1.92;0.85;;;21.50;68.60;;;;;;2342626;54;21453;-77
2022/06/24 02:01:12;;;;;;;3.30;0.93;;;21.50;68.60;;;;;;2342770;54;20925;-76
2022/06/24 02:03:38;;;;;;;3.60;1.00;;;21.50;68.80;;;;;;2434054;53;21049;-78
2022/06/24 02:06:06;;;;;;;4.07;1.00;;;21.50;68.80;;;;;;2425686;53;21012;-77
2022/06/24 02:08:32;;;;;;;4.03;1.30;;;21.40;68.70;;;;;;2381527;53;20939;-77
2022/06/24 02:13:44;;;;;;;1.75;0.82;;;21.50;68.90;;;;;;2346971;53;20958;-77
2022/06/24 02:16:11;;;;;;;3.33;1.17;;;21.40;68.70;;;;;;2381931;53;20984;-77
2022/06/24 02:18:40;;;;;;;3.17;1.12;;;21.40;68.80;;;;;;2387664;53;20924;-78
2022/06/24 02:21:08;;;;;;;2.25;0.88;;;21.40;69.00;;;;;;2435562;53;20999;-79
2022/06/24 02:23:35;;;;;;;3.05;1.10;;;21.40;68.90;;;;;;2479015;53;21028;-77
2022/06/24 02:26:01;;;;;;;3.33;1.00;;;21.40;68.90;;;;;;2344251;53;20933;-77
2022/06/24 02:28:27;;;;;;;2.33;1.00;;;21.30;68.80;;;;;;2346062;53;21693;-79
2022/06/24 02:30:54;;;;;;;2.65;0.80;;;21.30;68.90;;;;;;2348503;54;21437;-79
2022/06/24 02:33:21;;;;;;;3.55;1.00;;;21.30;68.90;;;;;;2344470;54;21009;-78
2022/06/24 02:35:47;;;;;;;2.80;1.20;;;21.30;69.50;;;;;;2425899;53;20929;-77
2022/06/24 02:38:14;;;;;;;3.60;1.10;;;21.30;68.70;;;;;;2380667;53;21013;-77
2022/06/24 02:40:51;;;;;;;2.30;0.80;;;21.30;68.80;;;;;;2347169;54;20994;-79
2022/06/24 02:43:21;;;;;;;3.03;1.30;;;21.20;68.80;;;;;;2366265;53;20962;-77
2022/06/24 02:45:57;;;;;;;2.87;0.93;;;21.20;68.90;;;;;;2346410;53;20982;-77
2022/06/24 02:48:24;;;;;;;2.83;1.12;;;21.20;69.00;;;;;;2342848;54;21036;-78
2022/06/24 02:50:52;;;;;;;1.80;0.90;;;21.20;69.00;;;;;;2344153;54;20944;-77
2022/06/24 02:53:19;;;;;;;3.55;1.00;;;21.20;69.10;;;;;;2379924;53;21016;-79
2022/06/24 02:55:59;;;;;;;1.95;0.88;;;21.20;69.00;;;;;;2393175;53;21018;-77
2022/06/24 02:58:26;;;;;;;1.92;0.88;;;21.10;68.90;;;;;;2343835;54;20929;-77
2022/06/24 03:01:11;;;;;;;3.62;1.08;;;21.10;68.80;;;;;;2375586;53;20952;-77
2022/06/24 03:03:37;;;;;;;3.50;1.27;;;21.10;68.80;;;;;;2454829;53;21012;-77
2022/06/24 03:06:04;;;;;;;2.20;1.00;;;21.10;68.80;;;;;;2348418;53;20953;-77
2022/06/24 03:08:30;;;;;;;3.65;1.10;;;21.10;68.80;;;;;;2363741;53;21871;-77
2022/06/24 03:11:18;;;;;;;1.42;0.70;;;21.10;68.90;;;;;;2332664;54;21848;-77
2022/06/24 03:13:44;;;;;;;2.60;1.00;;;21.10;69.00;;;;;;2288512;55;20933;-78
2022/06/24 03:16:10;;;;;;;2.35;1.10;;;21.00;69.00;;;;;;2359919;53;20964;-77
2022/06/24 03:18:37;;;;;;;4.15;1.33;;;21.00;69.20;;;;;;2370589;53;20993;-77
2022/06/24 03:21:06;;;;;;;2.37;0.90;;;21.00;69.20;;;;;;2330022;54;20985;-79
2022/06/24 03:23:34;;;;;;;2.33;0.77;;;21.00;69.20;;;;;;2493478;53;21001;-77
2022/06/24 03:26:03;;;;;;;2.78;1.00;;;21.00;69.20;;;;;;2351950;52;20950;-80
2022/06/24 03:28:29;;;;;;;2.75;0.90;;;21.00;69.30;;;;;;2340830;53;20906;-78
2022/06/24 03:30:57;;;;;;;2.65;0.80;;;21.00;69.30;;;;;;2448302;53;21018;-81
2022/06/24 03:33:23;;;;;;;3.50;1.00;;;21.00;69.30;;;;;;2321997;54;21046;-79
2022/06/24 03:35:49;;;;;;;3.45;1.10;;;21.00;69.30;;;;;;2350459;54;20993;-77
2022/06/24 03:38:19;;;;;;;4.03;1.20;;;21.00;69.20;;;;;;2342624;54;21756;-76
2022/06/24 03:40:48;;;;;;;2.72;1.05;;;21.00;69.20;;;;;;2392775;52;20962;-77
2022/06/24 03:43:15;;;;;;;2.47;0.90;;;21.00;69.20;;;;;;2396098;53;21029;-80
2022/06/24 03:45:41;;;;;;;3.08;1.23;;;21.00;69.10;;;;;;2405118;53;21217;-80
2022/06/24 03:48:11;;;;;;;3.83;1.20;;;20.90;69.00;;;;;;2374530;53;20958;-77
2022/06/24 03:50:37;;;;;;;4.37;1.42;;;20.90;69.00;;;;;;2410768;53;20950;-79
2022/06/24 03:53:07;;;;;;;2.92;1.05;;;20.90;69.20;;;;;;2377002;52;20998;-79
2022/06/24 03:55:33;;;;;;;2.70;1.23;;;20.90;69.30;;;;;;2332694;53;20911;-79
2022/06/24 03:57:59;;;;;;;3.75;1.20;;;20.90;69.40;;;;;;2320400;53;21743;-77
2022/06/24 04:00:26;;;;;;;2.80;0.90;;;20.90;69.40;;;;;;2556003;53;21849;-79
2022/06/24 04:02:52;;;;;;;1.65;0.73;;;20.90;69.40;;;;;;2387758;53;21017;-78
2022/06/24 04:05:19;;;;;;;2.78;0.93;;;20.90;69.30;;;;;;2338295;54;21740;-78
2022/06/24 04:07:45;;;;;;;3.05;1.05;;;20.90;69.30;;;;;;2553169;53;21521;-79
2022/06/24 04:10:11;;;;;;;3.80;1.20;;;20.90;69.40;;;;;;2334960;53;20914;-79
2022/06/24 04:12:39;;;;;;;4.50;1.27;;;20.90;69.50;;;;;;2344992;54;20991;-77
2022/06/24 04:15:17;;;;;;;5.50;1.50;;;20.90;69.60;;;;;;2352566;53;20991;-81
2022/06/24 04:17:47;;;;;;;2.17;1.15;;;20.80;69.60;;;;;;2317927;54;20927;-80
2022/06/24 04:20:14;;;;;;;3.92;1.40;;;20.90;69.80;;;;;;2366493;53;21069;-80
2022/06/24 04:22:41;;;;;;;6.60;1.70;;;20.90;69.90;;;;;;2342089;53;21286;-77
2022/06/24 04:25:08;;;;;;;3.08;1.50;;;20.90;70.00;;;;;;2360480;53;20939;-78
2022/06/24 04:27:35;;;;;;;3.80;1.48;;;20.90;70.10;;;;;;2557032;53;21035;-81
2022/06/24 04:30:02;;;;;;;3.97;1.25;;;20.80;70.00;;;;;;2341527;54;20929;-80
2022/06/24 04:32:29;;;;;;;3.30;1.12;;;20.80;70.10;;;;;;2343371;54;21462;-80
2022/06/24 04:34:57;;;;;;;4.35;1.50;;;20.80;70.20;;;;;;2406602;53;21006;-77
2022/06/24 04:37:23;;;;;;;3.42;1.27;;;20.80;70.20;;;;;;2348351;53;20926;-78
2022/06/24 04:39:51;;;;;;;3.20;1.30;;;20.90;70.40;;;;;;2383767;53;20954;-78
2022/06/24 04:42:17;;;;;;;2.58;1.20;;;20.90;70.50;;;;;;2343035;54;20954;-77
2022/06/24 04:44:44;;;;;;;4.12;1.52;;;20.90;70.50;;;;;;2343061;53;20925;-80
2022/06/24 04:47:12;;;;;;;4.30;1.08;;;20.90;70.60;;;;;;2341767;54;21006;-82
2022/06/24 04:49:39;;;;;;;3.05;1.05;;;20.90;70.70;;;;;;2393241;53;20985;-81
2022/06/24 04:52:05;;;;;;;4.62;1.30;;;21.00;70.80;;;;;;2342521;53;21006;-77
2022/06/24 04:54:32;;;;;;;3.08;1.33;;;21.00;70.90;;;;;;2326734;53;21546;-78
2022/06/24 04:56:58;;;;;;;3.65;1.50;;;21.00;70.90;;;;;;2342543;54;21029;-77
2022/06/24 04:59:26;;;;;;;3.15;1.50;;;21.00;71.00;;;;;;2362976;53;21028;-77
2022/06/24 05:01:55;;;;;;;2.67;1.12;;;21.00;71.00;;;;;;2332363;53;20939;-77
2022/06/24 05:04:24;;;;;;;3.40;1.20;;;21.00;71.10;;;;;;2451953;54;21663;-77
2022/06/24 05:06:52;;;;;;;4.75;1.30;;;21.10;71.30;;;;;;2343264;54;21611;-77
2022/06/24 05:09:20;;;;;;;3.60;1.42;;;21.10;71.30;;;;;;2387483;53;21041;-77
2022/06/24 05:11:50;;;;;;;3.83;1.37;;;21.10;71.40;;;;;;2347538;54;21091;-80
2022/06/24 05:14:17;;;;;;;2.85;1.02;;;21.20;71.50;;;;;;2324312;54;20930;-77
2022/06/24 05:16:44;;;;;;;3.08;1.42;;;21.20;71.60;;;;;;2374288;53;20996;-80
2022/06/24 05:19:10;;;;;;;4.18;1.35;;;21.20;71.60;;;;;;2546779;53;20974;-78
2022/06/24 05:21:37;;;;;;;3.15;1.40;;;21.30;71.60;;;;;;2354340;53;21427;-77
2022/06/24 05:24:03;;;;;;;3.42;1.40;;;21.30;71.60;;;;;;2380676;53;20957;-77
2022/06/24 05:26:30;;;;;;;3.05;1.15;;;21.30;71.70;;;;;;2410419;53;20954;-77
2022/06/24 05:28:59;;;;;;;8.05;1.40;;;21.40;71.90;;;;;;2412890;53;21019;-80
2022/06/24 05:31:25;;;;;;;4.15;1.70;;;21.40;71.90;;;;;;2351078;54;20966;-77
2022/06/24 05:33:53;;;;;;;3.72;1.52;;;21.50;72.00;;;;;;2361080;53;20981;-77
2022/06/24 05:36:19;;;;;;;3.45;1.25;;;21.50;72.10;;;;;;2445758;53;21449;-78
2022/06/24 05:38:46;;;;;;;5.15;1.50;;;21.60;72.20;;;;;;2338290;54;20986;-76
2022/06/24 05:41:13;;;;;;;2.90;1.23;;;21.60;72.20;;;;;;2339593;53;21035;-77
2022/06/24 05:43:39;;;;;;;6.05;1.20;;;21.60;72.20;;;;;;2465445;54;20950;-80
2022/06/24 05:46:07;;;;;;;4.62;1.20;;;21.70;72.40;;;;;;2388022;53;20987;-77
2022/06/24 05:48:34;;;;;;;2.80;1.48;;;21.70;72.40;;;;;;2322092;54;21006;-77
2022/06/24 05:51:09;;;;;;;3.17;1.48;;;21.80;72.50;;;;;;2356274;53;20951;-77
2022/06/24 05:56:21;;;;;;;3.97;1.50;;;21.90;72.60;;;;;;2385679;53;20959;-79
2022/06/24 05:58:47;;;;;;;4.28;1.23;;;22.00;72.70;;;;;;2374774;53;21005;-81
2022/06/24 06:01:14;;;;;;;2.87;1.08;;;22.00;72.70;;;;;;2387203;52;21000;-82
2022/06/24 06:03:40;;;;;;;5.37;1.30;;;22.00;72.50;;;;;;2334129;54;21012;-82
2022/06/24 06:06:07;;;;;;;5.00;1.50;;;22.10;72.50;;;;;;2382315;53;20925;-81
2022/06/24 06:08:36;;;;;;;3.72;1.30;;;22.20;72.70;;;;;;2397573;53;20950;-80
2022/06/24 06:11:24;;;;;;;4.22;1.30;;;22.20;72.70;;;;;;2380343;53;21059;-81
2022/06/24 16:30:25;;;;;;;1.50;0.68;;;22.80;66.10;;;;;;2245912;55;21829;-78
2022/06/24 16:32:51;;;;;;;1.37;0.70;;;22.70;66.10;;;;;;2245089;55;21747;-74
2022/06/24 16:35:21;;;;;;;1.40;0.55;;;22.70;66.30;;;;;;2285585;55;20968;-80
2022/06/24 16:37:49;;;;;;;1.35;0.73;;;22.60;66.30;;;;;;2259378;56;20977;-80
2022/06/24 16:40:16;;;;;;;1.73;0.70;;;22.60;66.40;;;;;;2257749;56;21465;-78
2022/06/24 16:43:15;;;;;;;1.12;0.60;;;22.50;66.40;;;;;;2259184;56;20976;-80
2022/06/24 16:45:52;;;;;;;2.58;0.65;;;22.50;66.60;;;;;;2295301;55;20957;-79
2022/06/24 16:48:20;;;;;;;1.80;0.70;;;22.50;66.70;;;;;;2264409;55;20995;-81
2022/06/24 16:50:46;;;;;;;1.58;0.80;;;22.40;66.70;;;;;;2275168;55;21788;-79
2022/06/24 16:53:16;;;;;;;2.05;0.70;;;22.40;66.90;;;;;;2461505;55;21075;-79
2022/06/24 16:55:42;;;;;;;1.77;0.65;;;22.40;67.00;;;;;;2270849;55;20945;-78
2022/06/24 16:58:09;;;;;;;1.37;0.60;;;22.30;67.00;;;;;;2258658;56;20949;-77
2022/06/24 17:00:35;;;;;;;2.08;0.80;;;22.30;67.10;;;;;;2262792;56;20997;-78
2022/06/24 17:03:03;;;;;;;1.80;0.85;;;22.30;67.30;;;;;;2271031;55;20991;-78
2022/06/24 17:05:30;;;;;;;3.20;0.98;;;22.30;67.40;;;;;;2269010;55;20933;-79
2022/06/24 17:07:57;;;;;;;1.58;0.60;;;22.30;67.50;;;;;;2277590;55;20984;-80
2022/06/24 17:10:24;;;;;;;1.12;0.60;;;22.30;67.60;;;;;;2266128;55;21478;-81
2022/06/24 17:12:50;;;;;;;1.70;0.68;;;22.30;67.60;;;;;;2260020;55;21030;-78
2022/06/24 17:15:17;;;;;;;1.62;0.60;;;22.20;67.50;;;;;;2256000;55;21466;-79
2022/06/24 17:17:44;;;;;;;1.87;0.60;;;22.20;67.60;;;;;;2250819;55;21356;-78
2022/06/24 17:20:11;;;;;;;0.80;0.50;;;22.20;67.60;;;;;;2459117;55;21046;-79
2022/06/24 17:22:40;;;;;;;1.75;0.70;;;22.20;67.60;;;;;;2310953;55;21078;-78
2022/06/24 17:25:06;;;;;;;0.88;0.52;;;22.20;67.70;;;;;;2248588;56;20992;-78
2022/06/24 17:27:33;;;;;;;0.75;0.40;;;22.20;67.70;;;;;;2267263;56;21016;-80
2022/06/24 17:30:00;;;;;;;1.00;0.50;;;22.20;67.70;;;;;;2284879;55;21436;-80
2022/06/24 17:32:27;;;;;;;1.05;0.60;;;22.10;67.70;;;;;;2274508;55;21061;-77
2022/06/24 17:34:53;;;;;;;1.05;0.47;;;22.10;67.70;;;;;;2408728;55;21421;-78
2022/06/24 17:37:22;;;;;;;1.15;0.60;;;22.10;67.80;;;;;;2292307;55;20932;-79
2022/06/24 17:39:49;;;;;;;0.98;0.50;;;22.20;67.90;;;;;;2283794;56;20999;-78
2022/06/24 17:42:16;;;;;;;1.00;0.50;;;22.10;67.80;;;;;;2494519;55;21368;-79
2022/06/24 17:44:42;;;;;;;1.12;0.60;;;22.10;67.80;;;;;;2437035;55;20948;-78
2022/06/24 17:47:08;;;;;;;1.30;0.60;;;22.10;67.80;;;;;;2284027;56;21015;-78
2022/06/24 17:49:35;;;;;;;1.73;0.50;;;22.10;67.80;;;;;;2284117;56;21024;-78
2022/06/24 17:52:01;;;;;;;0.95;0.60;;;22.10;67.90;;;;;;2281823;56;20984;-78
2022/06/24 17:54:27;;;;;;;1.12;0.55;;;22.10;67.90;;;;;;2283156;56;21012;-80
2022/06/24 17:56:54;;;;;;;1.17;0.60;;;22.00;67.90;;;;;;2396210;55;21496;-78
2022/06/24 17:59:21;;;;;;;1.15;0.57;;;22.00;67.90;;;;;;2316165;55;20977;-80
2022/06/24 18:01:48;;;;;;;1.17;0.45;;;22.10;68.10;;;;;;2272472;56;21033;-78
2022/06/24 18:04:14;;;;;;;1.25;0.68;;;22.00;68.00;;;;;;2520749;55;20993;-79
2022/06/24 18:06:42;;;;;;;1.10;0.60;;;22.00;68.00;;;;;;2290618;55;20961;-79
2022/06/24 18:09:08;;;;;;;1.77;0.50;;;22.00;68.10;;;;;;2288879;56;20993;-77
2022/06/24 18:11:36;;;;;;;1.20;0.52;;;22.00;68.20;;;;;;2266114;56;21548;-78
2022/06/24 18:14:03;;;;;;;1.30;0.50;;;22.00;68.20;;;;;;2491099;55;21057;-79
2022/06/24 18:16:31;;;;;;;2.05;0.60;;;22.00;68.20;;;;;;2287670;56;20969;-80
2022/06/24 18:18:58;;;;;;;0.90;0.47;;;22.00;68.20;;;;;;2279829;56;21032;-78
2022/06/24 18:21:25;;;;;;;2.83;0.75;;;22.00;68.20;;;;;;2277965;56;20977;-79
2022/06/24 18:23:51;;;;;;;1.70;0.70;;;22.00;68.20;;;;;;2284362;56;21020;-79
2022/06/24 18:26:17;;;;;;;2.45;0.70;;;22.00;68.30;;;;;;2360941;55;21100;-80
2022/06/24 18:28:44;;;;;;;2.05;0.88;;;22.00;68.30;;;;;;2281856;56;21557;-80
2022/06/24 18:31:11;;;;;;;1.80;0.70;;;22.00;68.30;;;;;;2268842;56;20945;-77
2022/06/24 18:33:37;;;;;;;2.10;0.77;;;22.00;68.30;;;;;;2281555;56;21492;-78
2022/06/24 18:36:04;;;;;;;1.37;0.65;;;22.00;68.40;;;;;;2286898;56;20953;-78
2022/06/24 18:38:30;;;;;;;1.20;0.70;;;22.00;68.40;;;;;;2287512;56;20966;-78
2022/06/24 18:41:02;;;;;;;2.15;0.77;;;22.00;68.40;;;;;;2269122;56;21024;-78
2022/06/24 18:43:28;;;;;;;1.50;0.70;;;22.00;68.40;;;;;;2268540;56;20917;-78
2022/06/24 18:45:54;;;;;;;3.17;0.75;;;22.00;68.50;;;;;;2288369;56;21668;-80
2022/06/24 18:48:23;;;;;;;1.85;0.80;;;22.00;68.50;;;;;;2286489;56;20953;-78
2022/06/24 18:50:50;;;;;;;1.90;0.90;;;22.00;68.50;;;;;;2285455;55;21406;-78
2022/06/24 18:53:16;;;;;;;2.22;0.90;;;22.00;68.50;;;;;;2268105;56;21008;-80
2022/06/24 18:55:42;;;;;;;1.65;0.70;;;22.00;68.50;;;;;;2287128;56;20945;-78
2022/06/24 18:58:09;;;;;;;1.30;0.65;;;22.00;68.50;;;;;;2287466;56;21008;-78
2022/06/24 19:00:36;;;;;;;1.65;0.70;;;22.00;68.50;;;;;;2326485;55;21005;-79
2022/06/24 19:03:02;;;;;;;1.37;0.60;;;22.00;68.50;;;;;;2285863;56;20960;-78
2022/06/24 19:05:28;;;;;;;1.70;0.60;;;22.00;68.50;;;;;;2287494;56;21708;-79
2022/06/24 19:07:55;;;;;;;0.93;0.52;;;22.00;68.50;;;;;;2297318;55;20961;-78
2022/06/24 19:10:21;;;;;;;1.20;0.60;;;22.00;68.50;;;;;;2404620;55;20976;-78
2022/06/24 19:12:48;;;;;;;1.45;0.60;;;22.00;68.50;;;;;;2287767;56;20945;-78
2022/06/24 19:15:14;;;;;;;1.15;0.55;;;22.00;68.50;;;;;;2286786;56;21041;-78
2022/06/24 19:17:41;;;;;;;1.55;0.77;;;22.00;68.50;;;;;;2460020;55;20961;-79
2022/06/24 19:20:08;;;;;;;1.40;0.52;;;22.00;68.50;;;;;;2518291;55;21005;-77
2022/06/24 19:22:40;;;;;;;2.25;0.60;;;22.00;68.50;;;;;;2403785;55;20973;-78
2022/06/24 19:25:06;;;;;;;1.58;0.60;;;22.00;69.20;;;;;;2335503;55;21076;-78
2022/06/24 19:27:34;;;;;;;1.67;0.75;;;22.00;68.40;;;;;;2286676;55;20944;-78
